LTCW Airport Information

Runway Information
Airport Frequencies
Airport Navaids
Airport Weather Information & NOTAM
ADDS - METARS form results

(1417 UTC 19 January 2019)
Data provider http://aviationweather.gov/metar/data/
 
Forecast for: LTCW (YUKSEKOVA , TR)
Text: TAF LTCW 191340Z 1915/1924 VRB02KT 6000 SCT040
Forecast period: 1500 UTC 19 January 2019 to 0000 UTC 20 January 2019
Forecast type: FROM: standard forecast or significant change
Winds: variable direction winds at 2 MPH (2 knots; 1.0 m/s)
Visibility: 4 miles (6 km)
Ceiling: at least 12,000 feet AGL
Clouds: scattered clouds at 4000 feet AGL
Weather: no significant weather forecast for this period